Time;durP1;ratioP1;P1;durP2;ratioP2;P2;SDS_P1;SDS_P2;PMS_P1;PMS_P2;Temp;Humidity;BMP_temperature;BMP_pressure;BME280_temperature;BME280_humidity;BME280_pressure;Samples;Min_cycle;Max_cycle;Signal;HPM_P1;HPM_P2
2021/08/02 00:01:01;;;;;;;11.68;4.45;;;32.40;67.40;;;;;;5077941;28;20056;-44
2021/08/02 00:03:49;;;;;;;13.02;6.22;;;32.30;67.70;;;;;;5051025;28;20073;-45
2021/08/02 00:06:22;;;;;;;14.68;5.32;;;32.30;67.80;;;;;;5060905;28;20049;-44
2021/08/02 00:09:13;;;;;;;10.15;4.60;;;32.30;68.90;;;;;;5052498;28;20515;-49
2021/08/02 00:11:50;;;;;;;10.25;4.43;;;32.30;68.60;;;;;;5075911;28;20128;-45
2021/08/02 00:14:20;;;;;;;13.55;4.97;;;32.30;68.90;;;;;;5038126;28;20048;-45
2021/08/02 00:16:48;;;;;;;12.00;4.57;;;32.20;69.00;;;;;;5080522;28;20135;-50
2021/08/02 00:19:17;;;;;;;10.45;4.25;;;32.20;69.20;;;;;;5070632;28;20116;-46
2021/08/02 00:21:46;;;;;;;14.93;5.53;;;32.20;69.40;;;;;;5065152;28;20044;-46
2021/08/02 00:24:15;;;;;;;11.80;4.38;;;32.20;69.50;;;;;;5070771;28;20127;-47
2021/08/02 00:26:43;;;;;;;12.32;5.03;;;32.20;69.50;;;;;;5048721;28;20044;-45
2021/08/02 00:29:11;;;;;;;10.40;5.10;;;32.20;69.40;;;;;;5071205;28;20090;-45
2021/08/02 00:31:39;;;;;;;8.98;4.35;;;32.20;69.20;;;;;;5054616;28;20152;-46
2021/08/02 00:34:07;;;;;;;12.75;4.15;;;32.30;69.00;;;;;;5037894;28;20064;-45
2021/08/02 00:36:58;;;;;;;9.18;4.15;;;32.30;68.60;;;;;;5064965;28;20643;-45
2021/08/02 00:39:29;;;;;;;12.35;4.80;;;32.40;68.40;;;;;;5089034;28;20145;-45
2021/08/02 00:42:17;;;;;;;11.60;6.30;;;32.40;68.10;;;;;;5083402;28;20079;-47
2021/08/02 00:45:01;;;;;;;8.73;3.97;;;32.40;68.00;;;;;;5054444;28;20052;-47
2021/08/02 00:47:36;;;;;;;16.38;5.25;;;32.40;68.10;;;;;;5067108;28;20490;-49
2021/08/02 00:50:06;;;;;;;;;;;32.40;68.30;;;;;;5086304;28;20051;-45
2021/08/02 00:52:34;;;;;;;14.20;4.97;;;32.40;68.70;;;;;;5068933;28;19947;-45
2021/08/02 00:55:04;;;;;;;8.85;4.53;;;32.30;68.50;;;;;;5067809;28;20482;-45
2021/08/02 00:57:37;;;;;;;10.85;4.78;;;32.30;68.30;;;;;;5085250;28;20149;-45
2021/08/02 01:00:09;;;;;;;;;;;32.30;68.10;;;;;;5084688;28;20059;-46
2021/08/02 01:02:40;;;;;;;11.90;4.72;;;32.30;68.00;;;;;;5084786;28;20306;-46
2021/08/02 01:05:13;;;;;;;13.80;4.85;;;32.30;67.70;;;;;;5082445;28;20522;-45
2021/08/02 01:07:50;;;;;;;12.27;4.57;;;32.30;67.50;;;;;;5087008;28;20116;-49
2021/08/02 01:10:19;;;;;;;13.55;5.10;;;32.30;67.30;;;;;;5081983;28;20436;-46
2021/08/02 01:12:50;;;;;;;16.25;4.85;;;32.30;67.10;;;;;;5070544;28;20051;-45
2021/08/02 01:15:19;;;;;;;10.13;4.43;;;32.30;67.00;;;;;;5082204;28;20094;-45
2021/08/02 01:17:48;;;;;;;10.40;5.57;;;32.40;67.10;;;;;;5086976;28;20456;-45
2021/08/02 01:20:16;;;;;;;9.25;4.47;;;32.40;67.00;;;;;;5064928;28;20098;-45
2021/08/02 01:22:48;;;;;;;17.98;5.22;;;32.40;67.00;;;;;;5087155;28;20055;-45
2021/08/02 01:25:39;;;;;;;9.32;4.10;;;32.40;66.90;;;;;;5065326;28;20036;-45
2021/08/02 01:28:13;;;;;;;11.95;5.07;;;32.40;66.90;;;;;;5090661;28;20070;-46
2021/08/02 01:30:45;;;;;;;13.63;4.00;;;32.30;67.10;;;;;;5062380;28;20041;-44
2021/08/02 01:33:15;;;;;;;11.93;4.75;;;32.30;67.50;;;;;;5089629;28;20051;-46
2021/08/02 01:35:44;;;;;;;8.32;4.45;;;32.30;67.60;;;;;;5060988;28;20052;-48
2021/08/02 01:38:16;;;;;;;8.60;3.53;;;32.30;67.50;;;;;;5034459;28;20068;-44
2021/08/02 01:40:45;;;;;;;14.10;5.88;;;32.10;67.50;;;;;;5056102;28;20057;-46
2021/08/02 01:43:12;;;;;;;13.88;6.45;;;32.10;67.50;;;;;;5090234;28;20048;-45
2021/08/02 01:46:04;;;;;;;10.73;4.60;;;32.00;67.70;;;;;;5062806;28;20040;-48
2021/08/02 01:48:56;;;;;;;11.15;4.45;;;32.00;67.80;;;;;;5017894;28;20048;-45
2021/08/02 01:51:37;;;;;;;14.10;4.75;;;32.00;67.80;;;;;;5077514;28;20367;-45
2021/08/02 01:54:53;;;;;;;12.35;4.30;;;32.00;67.90;;;;;;5087860;28;20040;-45
2021/08/02 01:57:44;;;;;;;15.00;4.53;;;31.90;67.90;;;;;;5007832;28;20053;-45
2021/08/02 02:00:40;;;;;;;16.60;4.72;;;31.90;68.00;;;;;;5065627;28;20076;-45
2021/08/02 02:03:10;;;;;;;10.25;4.78;;;31.90;68.00;;;;;;5053329;28;20036;-45
2021/08/02 02:06:02;;;;;;;10.52;5.22;;;31.90;68.00;;;;;;5048340;28;20526;-46
2021/08/02 02:08:40;;;;;;;12.10;6.22;;;31.80;68.00;;;;;;5018129;28;20037;-46
2021/08/02 02:11:18;;;;;;;12.00;4.28;;;31.90;68.00;;;;;;5052744;28;20090;-45
2021/08/02 02:13:53;;;;;;;15.07;5.53;;;31.90;67.70;;;;;;5072372;28;20044;-46
2021/08/02 02:16:25;;;;;;;13.55;4.93;;;31.80;67.70;;;;;;5045935;28;20498;-45
2021/08/02 02:18:56;;;;;;;12.00;4.63;;;31.90;67.50;;;;;;5039471;28;20045;-46
2021/08/02 02:21:28;;;;;;;10.02;4.55;;;31.80;67.00;;;;;;5065042;28;20095;-45
2021/08/02 02:24:01;;;;;;;11.30;4.00;;;31.80;66.70;;;;;;5038869;28;20045;-46
2021/08/02 02:26:32;;;;;;;12.73;3.90;;;31.80;66.40;;;;;;5046274;28;20367;-45
2021/08/02 02:29:05;;;;;;;10.00;5.00;;;31.70;65.40;;;;;;5038367;28;20056;-45
2021/08/02 02:31:37;;;;;;;15.90;4.03;;;31.70;65.40;;;;;;5072676;28;20040;-45
2021/08/02 02:34:08;;;;;;;10.65;4.68;;;31.70;65.00;;;;;;5039832;28;20089;-45
2021/08/02 02:36:38;;;;;;;15.35;4.20;;;31.70;64.80;;;;;;5044646;28;20037;-45
2021/08/02 02:39:09;;;;;;;13.25;4.57;;;31.80;64.70;;;;;;5038840;28;20032;-46
2021/08/02 02:41:39;;;;;;;10.20;5.47;;;31.80;64.50;;;;;;5027100;28;20045;-49
2021/08/02 02:44:07;;;;;;;11.35;4.43;;;31.60;64.60;;;;;;5056951;28;20493;-45
2021/08/02 02:46:36;;;;;;;9.93;3.85;;;31.70;64.60;;;;;;5072399;28;20472;-46
2021/08/02 02:49:06;;;;;;;8.15;4.07;;;31.70;64.60;;;;;;5039043;28;20433;-45
2021/08/02 02:51:35;;;;;;;15.90;5.32;;;31.60;64.80;;;;;;5045035;28;20095;-47
2021/08/02 02:54:04;;;;;;;13.88;5.30;;;31.60;64.90;;;;;;5037591;28;20044;-46
2021/08/02 02:56:34;;;;;;;15.43;4.10;;;31.70;65.00;;;;;;5072111;28;20437;-45
2021/08/02 02:59:03;;;;;;;11.98;4.68;;;31.70;65.10;;;;;;5057194;28;20060;-45
2021/08/02 03:01:39;;;;;;;12.13;4.85;;;31.70;65.30;;;;;;5049610;28;20054;-47
2021/08/02 03:04:12;;;;;;;10.70;4.70;;;31.70;65.30;;;;;;5090712;28;20039;-48
2021/08/02 03:06:43;;;;;;;14.20;5.35;;;31.70;65.30;;;;;;5073541;28;20502;-46
2021/08/02 03:09:16;;;;;;;17.35;4.90;;;31.70;65.50;;;;;;5022447;28;20490;-44
2021/08/02 03:11:45;;;;;;;12.63;5.18;;;31.70;65.60;;;;;;5073353;28;20114;-45
2021/08/02 03:14:17;;;;;;;10.40;5.22;;;31.60;65.30;;;;;;5057341;28;20036;-46
2021/08/02 03:16:44;;;;;;;13.55;5.78;;;31.70;65.30;;;;;;5078678;28;20076;-49
2021/08/02 03:19:12;;;;;;;12.23;4.78;;;31.60;65.30;;;;;;5071693;28;20040;-45
2021/08/02 03:21:40;;;;;;;17.50;5.97;;;31.60;65.20;;;;;;5076768;28;20410;-45
2021/08/02 03:24:40;;;;;;;12.52;4.85;;;31.60;65.20;;;;;;5071242;28;20037;-46
2021/08/02 03:27:24;;;;;;;18.48;5.28;;;31.60;65.40;;;;;;5056152;28;20044;-47
2021/08/02 03:29:52;;;;;;;17.38;5.60;;;31.60;65.60;;;;;;5087214;28;20062;-45
2021/08/02 03:32:23;;;;;;;13.48;4.82;;;31.60;65.80;;;;;;5084584;28;20042;-48
2021/08/02 03:34:55;;;;;;;13.60;4.50;;;31.60;65.70;;;;;;5070837;28;20512;-45
2021/08/02 03:37:26;;;;;;;21.35;6.82;;;31.60;65.60;;;;;;5051740;28;20502;-48
2021/08/02 03:39:57;;;;;;;32.97;7.65;;;31.60;65.70;;;;;;5085620;28;20051;-49
2021/08/02 03:42:26;;;;;;;14.98;6.60;;;31.70;65.90;;;;;;5085472;28;20117;-45
2021/08/02 03:44:54;;;;;;;14.52;6.50;;;31.60;65.90;;;;;;5069431;28;20060;-45
2021/08/02 03:47:23;;;;;;;14.70;5.25;;;31.60;66.00;;;;;;5084482;28;20113;-45
2021/08/02 03:49:51;;;;;;;13.65;6.03;;;31.60;66.10;;;;;;5086746;28;20084;-45
2021/08/02 03:52:19;;;;;;;19.10;6.93;;;31.70;66.20;;;;;;5067392;28;20066;-45
2021/08/02 03:54:47;;;;;;;26.45;6.70;;;31.70;66.20;;;;;;5086858;28;20047;-48
2021/08/02 03:57:16;;;;;;;24.83;7.88;;;31.70;66.20;;;;;;5082140;28;20044;-44
2021/08/02 03:59:46;;;;;;;23.13;7.50;;;31.70;66.30;;;;;;5088701;28;20097;-47
2021/08/02 04:02:13;;;;;;;17.92;7.28;;;31.70;66.30;;;;;;5082795;28;20028;-45
2021/08/02 04:04:41;;;;;;;34.35;7.80;;;31.70;66.50;;;;;;5087741;28;20136;-46
2021/08/02 04:07:09;;;;;;;46.20;10.85;;;31.70;66.60;;;;;;5082416;28;20127;-46
2021/08/02 04:09:37;;;;;;;62.85;13.43;;;31.70;66.70;;;;;;5070719;28;20130;-45
2021/08/02 04:12:05;;;;;;;52.97;11.02;;;31.70;66.80;;;;;;5080789;28;20051;-45
2021/08/02 04:14:33;;;;;;;40.50;10.65;;;31.70;67.00;;;;;;5069647;28;20472;-45
2021/08/02 04:17:01;;;;;;;31.20;7.63;;;31.70;67.00;;;;;;5082508;28;20374;-46
2021/08/02 04:19:29;;;;;;;26.70;7.40;;;31.70;67.20;;;;;;5087449;28;20064;-45
2021/08/02 04:21:58;;;;;;;16.88;6.05;;;31.70;67.40;;;;;;5083492;28;20093;-47
2021/08/02 04:24:27;;;;;;;18.98;7.72;;;31.80;67.40;;;;;;5086826;28;20044;-46
2021/08/02 04:26:54;;;;;;;16.33;5.47;;;31.80;67.30;;;;;;5080310;28;20047;-45
2021/08/02 04:29:22;;;;;;;16.27;6.03;;;31.80;67.40;;;;;;5086201;28;20392;-49
2021/08/02 04:31:50;;;;;;;14.90;6.63;;;31.80;67.50;;;;;;5081353;28;20047;-51
2021/08/02 04:34:17;;;;;;;10.20;4.68;;;31.80;67.60;;;;;;5087216;28;20078;-46
2021/08/02 04:36:45;;;;;;;18.15;6.38;;;31.80;67.60;;;;;;5083287;28;20146;-47
2021/08/02 04:39:13;;;;;;;15.25;5.60;;;31.80;67.60;;;;;;5086818;28;20135;-46
2021/08/02 04:41:40;;;;;;;19.13;6.30;;;31.80;67.70;;;;;;5070736;28;20045;-45
2021/08/02 04:44:08;;;;;;;13.10;6.03;;;31.80;67.80;;;;;;5055125;28;20048;-45
2021/08/02 04:46:35;;;;;;;13.68;6.65;;;31.90;68.00;;;;;;5081178;28;20048;-49
2021/08/02 04:49:03;;;;;;;15.07;5.53;;;31.90;68.10;;;;;;5088098;28;20555;-48
2021/08/02 04:51:31;;;;;;;16.65;5.82;;;31.90;68.20;;;;;;5080799;28;20067;-49
2021/08/02 04:53:59;;;;;;;9.82;5.03;;;32.00;68.30;;;;;;5072505;28;20066;-49
2021/08/02 04:56:27;;;;;;;16.02;6.78;;;32.00;68.40;;;;;;5079671;28;20097;-45
2021/08/02 04:58:54;;;;;;;11.63;5.15;;;32.10;68.40;;;;;;5088885;28;20378;-45
2021/08/02 05:01:22;;;;;;;18.20;5.40;;;32.30;68.50;;;;;;5059615;28;20410;-51
2021/08/02 05:03:50;;;;;;;19.63;6.07;;;32.30;69.30;;;;;;5056005;28;20125;-47
2021/08/02 05:06:18;;;;;;;20.63;7.78;;;32.40;68.80;;;;;;5080574;28;20064;-48
2021/08/02 05:08:45;;;;;;;23.33;8.00;;;32.60;68.40;;;;;;5089902;28;20127;-45
2021/08/02 05:11:13;;;;;;;30.13;7.50;;;32.60;68.30;;;;;;5045553;28;20482;-46
2021/08/02 05:13:41;;;;;;;20.27;6.45;;;32.70;67.50;;;;;;5088958;28;20494;-53
2021/08/02 05:16:09;;;;;;;14.63;5.47;;;32.70;65.70;;;;;;5081044;28;20502;-47
2021/08/02 05:18:36;;;;;;;13.52;4.40;;;32.80;64.50;;;;;;5053177;28;20036;-47
2021/08/02 05:21:06;;;;;;;17.38;5.25;;;32.80;63.30;;;;;;5060897;28;20049;-45
2021/08/02 05:23:34;;;;;;;14.65;5.28;;;32.80;61.60;;;;;;5090657;28;20119;-49
2021/08/02 05:26:02;;;;;;;11.32;4.93;;;32.90;62.80;;;;;;5059188;28;20510;-45
2021/08/02 05:28:30;;;;;;;18.27;5.43;;;32.90;62.30;;;;;;5089717;28;20051;-48
2021/08/02 05:30:57;;;;;;;11.57;4.82;;;33.00;61.60;;;;;;5076206;28;20502;-45
2021/08/02 05:33:25;;;;;;;11.73;4.53;;;33.10;60.80;;;;;;5072912;28;20405;-46
2021/08/02 05:35:52;;;;;;;10.00;3.95;;;33.20;60.10;;;;;;5077474;28;20044;-47
2021/08/02 05:38:20;;;;;;;17.35;5.38;;;33.20;60.60;;;;;;5090269;28;20490;-48
2021/08/02 05:40:48;;;;;;;12.07;4.85;;;33.30;60.00;;;;;;5077858;28;20049;-45
2021/08/02 05:43:15;;;;;;;14.35;4.45;;;33.40;60.50;;;;;;5051820;28;20400;-45
2021/08/02 05:45:43;;;;;;;11.48;4.50;;;33.40;59.90;;;;;;5076438;28;20058;-45
2021/08/02 05:48:11;;;;;;;14.07;5.10;;;33.50;59.50;;;;;;5092813;28;20071;-46
2021/08/02 05:50:38;;;;;;;14.10;4.32;;;33.60;59.80;;;;;;5066380;28;20132;-45
2021/08/02 05:53:06;;;;;;;13.52;4.45;;;33.60;60.10;;;;;;5093055;28;20036;-47
2021/08/02 05:55:34;;;;;;;11.43;4.35;;;33.60;60.20;;;;;;5062965;28;20122;-48
2021/08/02 05:58:01;;;;;;;14.55;4.63;;;33.60;60.60;;;;;;5090300;28;20054;-45
2021/08/02 06:00:29;;;;;;;16.98;4.40;;;33.50;61.30;;;;;;5083814;28;20053;-46
2021/08/02 06:02:57;;;;;;;14.48;5.95;;;33.50;62.10;;;;;;5090746;28;20101;-49
2021/08/02 06:05:24;;;;;;;19.33;5.43;;;33.60;62.40;;;;;;5084555;28;20053;-45
2021/08/02 06:07:52;;;;;;;11.85;4.68;;;33.60;62.50;;;;;;5091015;28;20067;-47
2021/08/02 06:10:20;;;;;;;12.63;5.35;;;33.80;62.40;;;;;;5068900;28;20462;-45
2021/08/02 06:12:47;;;;;;;11.25;5.30;;;34.00;62.50;;;;;;5091565;28;20042;-47
2021/08/02 06:15:16;;;;;;;18.90;5.32;;;34.10;62.50;;;;;;5087124;28;20466;-45
2021/08/02 06:17:43;;;;;;;12.52;5.32;;;34.20;62.60;;;;;;5088552;28;20123;-46
2021/08/02 06:20:12;;;;;;;17.80;6.13;;;34.30;62.80;;;;;;5069189;28;20169;-45
2021/08/02 06:22:39;;;;;;;14.52;4.97;;;34.50;62.90;;;;;;5088902;28;20043;-47
2021/08/02 06:25:08;;;;;;;13.73;5.50;;;34.50;63.30;;;;;;5086682;28;20040;-45
2021/08/02 06:27:35;;;;;;;16.20;6.30;;;34.50;63.70;;;;;;5088041;28;20089;-44
2021/08/02 06:30:04;;;;;;;14.27;6.53;;;34.30;63.90;;;;;;5087583;28;20067;-47
2021/08/02 06:32:33;;;;;;;15.65;5.65;;;34.20;64.30;;;;;;5068812;28;20040;-47
2021/08/02 06:35:00;;;;;;;12.68;5.65;;;34.00;64.90;;;;;;5086377;28;20106;-44
2021/08/02 06:37:28;;;;;;;10.05;4.75;;;34.00;65.50;;;;;;5053067;28;20133;-48
2021/08/02 06:39:56;;;;;;;9.10;4.53;;;34.20;65.60;;;;;;5071119;28;20366;-44
2021/08/02 06:42:23;;;;;;;10.88;5.07;;;34.30;65.60;;;;;;5069311;28;20095;-45
2021/08/02 06:44:51;;;;;;;15.43;4.60;;;34.40;65.50;;;;;;5088543;28;20116;-45
2021/08/02 06:47:19;;;;;;;12.00;4.72;;;34.60;66.60;;;;;;5043212;28;20055;-47
2021/08/02 06:49:47;;;;;;;18.98;5.90;;;34.70;65.50;;;;;;5049889;28;20113;-49
2021/08/02 06:52:15;;;;;;;13.85;4.68;;;34.90;65.20;;;;;;5084178;28;20071;-45
2021/08/02 06:54:42;;;;;;;10.85;5.93;;;35.00;64.70;;;;;;5088851;28;20040;-48
2021/08/02 06:57:10;;;;;;;16.27;5.63;;;35.20;64.80;;;;;;5074327;28;20040;-46
2021/08/02 06:59:37;;;;;;;15.68;5.40;;;35.30;64.70;;;;;;5088784;28;20056;-46
2021/08/02 07:02:05;;;;;;;11.32;5.78;;;35.50;64.40;;;;;;5066839;28;20168;-46
2021/08/02 07:04:33;;;;;;;14.77;5.65;;;35.60;64.40;;;;;;5088001;28;20456;-45
2021/08/02 07:07:01;;;;;;;13.20;4.82;;;35.80;64.00;;;;;;5083032;28;20047;-45
2021/08/02 07:09:29;;;;;;;11.10;4.68;;;35.90;63.80;;;;;;5087836;28;20140;-45
2021/08/02 07:11:56;;;;;;;14.15;6.80;;;36.00;63.50;;;;;;5083538;28;20509;-48
2021/08/02 07:14:24;;;;;;;17.38;6.07;;;36.20;63.90;;;;;;5089968;28;20492;-50
2021/08/02 07:16:52;;;;;;;9.90;5.75;;;36.10;63.90;;;;;;5082248;28;20044;-50
2021/08/02 07:19:21;;;;;;;18.02;6.15;;;36.20;64.10;;;;;;5086196;28;20048;-49
2021/08/02 07:21:49;;;;;;;11.52;5.18;;;36.30;64.30;;;;;;5066048;28;20044;-45
2021/08/02 07:24:16;;;;;;;15.20;6.80;;;36.30;64.30;;;;;;5087983;28;20040;-45
2021/08/02 07:26:44;;;;;;;14.00;5.53;;;36.10;64.30;;;;;;5082942;28;20043;-49
2021/08/02 07:29:12;;;;;;;16.65;6.32;;;36.00;64.20;;;;;;5088324;28;20111;-45
2021/08/02 07:31:40;;;;;;;12.52;5.80;;;35.90;63.90;;;;;;5073156;28;20053;-47
2021/08/02 07:34:07;;;;;;;16.38;6.55;;;35.90;63.70;;;;;;5055342;28;20048;-48
2021/08/02 07:36:35;;;;;;;9.63;5.40;;;36.00;64.10;;;;;;5083471;28;20063;-47
2021/08/02 07:39:03;;;;;;;13.18;6.20;;;36.10;63.90;;;;;;5089704;28;20052;-51
2021/08/02 07:41:31;;;;;;;18.27;6.10;;;36.20;63.50;;;;;;5048697;28;20044;-46
2021/08/02 07:44:00;;;;;;;11.98;5.03;;;36.40;63.30;;;;;;5090391;28;20052;-51
2021/08/02 07:46:28;;;;;;;12.23;4.50;;;36.60;63.50;;;;;;5048256;28;20040;-45
2021/08/02 07:48:56;;;;;;;14.90;6.10;;;36.60;63.30;;;;;;5073751;28;20044;-45
2021/08/02 07:51:24;;;;;;;13.18;5.45;;;36.40;63.30;;;;;;5078266;28;20130;-50
2021/08/02 07:53:51;;;;;;;17.27;5.50;;;36.40;63.90;;;;;;5090039;28;20579;-47
2021/08/02 07:56:19;;;;;;;17.08;5.95;;;36.40;64.40;;;;;;5063248;28;20069;-47
2021/08/02 07:58:47;;;;;;;17.52;5.25;;;36.50;64.50;;;;;;5092009;28;20397;-45
2021/08/02 08:01:16;;;;;;;14.55;5.78;;;36.40;64.40;;;;;;5042166;28;20045;-48
2021/08/02 08:03:44;;;;;;;19.55;6.43;;;36.40;64.40;;;;;;5031098;28;20049;-49
2021/08/02 08:06:12;;;;;;;19.30;6.70;;;36.60;64.30;;;;;;5039101;28;20085;-46
2021/08/02 08:08:40;;;;;;;13.20;4.72;;;36.60;63.80;;;;;;5050399;28;20517;-45
2021/08/02 08:11:09;;;;;;;12.18;4.38;;;36.60;64.10;;;;;;5038506;28;20438;-48
2021/08/02 08:13:38;;;;;;;16.25;4.53;;;36.60;64.10;;;;;;5033927;28;20119;-44
2021/08/02 08:16:07;;;;;;;13.55;5.55;;;36.60;64.40;;;;;;5010833;28;20052;-45
2021/08/02 08:18:35;;;;;;;21.23;5.28;;;36.40;64.50;;;;;;5034011;28;20411;-45
2021/08/02 08:21:03;;;;;;;12.68;4.10;;;36.40;65.00;;;;;;5041514;28;20056;-46
2021/08/02 08:23:32;;;;;;;11.52;4.80;;;36.40;65.50;;;;;;5013815;28;20050;-54
2021/08/02 08:26:01;;;;;;;16.88;4.38;;;36.30;65.80;;;;;;5004091;28;20052;-46
2021/08/02 08:28:29;;;;;;;20.55;5.72;;;36.30;65.10;;;;;;5017246;28;20187;-47
2021/08/02 08:30:56;;;;;;;14.07;4.90;;;36.30;64.60;;;;;;5026708;28;20131;-48
2021/08/02 08:33:27;;;;;;;14.50;5.20;;;36.50;64.60;;;;;;5014354;28;20041;-50
2021/08/02 08:35:57;;;;;;;11.80;4.65;;;36.40;64.90;;;;;;5041500;28;20045;-44
2021/08/02 08:38:25;;;;;;;13.77;4.18;;;36.40;64.60;;;;;;5029672;28;20487;-45
2021/08/02 08:40:53;;;;;;;12.63;4.85;;;36.40;63.30;;;;;;5041221;28;20052;-46
2021/08/02 08:43:21;;;;;;;16.27;4.82;;;36.10;63.30;;;;;;5030095;28;20207;-51
2021/08/02 08:45:49;;;;;;;10.52;5.43;;;36.10;63.90;;;;;;5021669;28;20507;-49
2021/08/02 08:48:17;;;;;;;16.27;6.28;;;36.00;63.90;;;;;;5049044;28;20037;-46
2021/08/02 08:50:45;;;;;;;19.58;5.63;;;36.10;64.30;;;;;;5043362;28;20483;-47
2021/08/02 08:53:15;;;;;;;10.85;4.47;;;36.20;63.80;;;;;;5028385;28;20042;-47
2021/08/02 08:55:44;;;;;;;13.27;4.82;;;36.30;63.70;;;;;;5023080;28;20415;-45
2021/08/02 08:58:12;;;;;;;15.93;4.78;;;36.40;63.20;;;;;;5029777;28;20045;-45
2021/08/02 09:00:40;;;;;;;13.18;5.95;;;36.50;62.80;;;;;;5037597;28;20521;-48
2021/08/02 09:03:13;;;;;;;13.65;4.38;;;36.60;63.10;;;;;;5069232;28;20113;-46
2021/08/02 09:05:44;;;;;;;10.45;5.03;;;36.60;62.90;;;;;;5069261;28;20601;-47
2021/08/02 09:08:14;;;;;;;16.90;5.10;;;36.40;63.00;;;;;;5032356;28;20047;-47
2021/08/02 09:10:54;;;;;;;12.55;4.28;;;36.30;62.70;;;;;;5044865;28;20065;-49
2021/08/02 09:13:29;;;;;;;13.43;4.47;;;36.50;62.60;;;;;;5032894;28;20045;-45
2021/08/02 09:15:57;;;;;;;15.48;4.57;;;36.30;62.40;;;;;;5068882;28;20040;-45
2021/08/02 09:18:25;;;;;;;13.55;4.18;;;36.50;62.80;;;;;;5074055;28;20136;-45
2021/08/02 09:21:06;;;;;;;11.60;5.28;;;36.40;62.50;;;;;;5073181;28;20032;-46
2021/08/02 09:23:49;;;;;;;17.77;6.28;;;36.40;62.10;;;;;;5073140;28;20514;-47
2021/08/02 09:26:31;;;;;;;9.20;4.20;;;36.60;62.10;;;;;;5072197;28;20405;-46
2021/08/02 09:29:00;;;;;;;11.98;4.50;;;36.50;62.50;;;;;;5073078;28;20048;-47
2021/08/02 09:31:32;;;;;;;10.77;4.57;;;36.50;62.50;;;;;;5031002;28;20099;-47
2021/08/02 09:34:02;;;;;;;14.27;4.75;;;36.40;62.50;;;;;;5057143;28;20103;-45
2021/08/02 09:36:44;;;;;;;14.27;4.50;;;36.30;62.80;;;;;;5074130;28;20115;-45
2021/08/02 09:39:14;;;;;;;11.70;3.83;;;36.20;63.50;;;;;;5071915;28;20040;-48
2021/08/02 09:41:43;;;;;;;11.30;4.07;;;36.30;63.00;;;;;;5065172;28;20055;-45
2021/08/02 09:44:23;;;;;;;9.25;4.80;;;36.60;61.80;;;;;;5023192;28;20560;-47
2021/08/02 09:46:59;;;;;;;12.40;4.50;;;36.60;60.40;;;;;;5053289;28;20049;-48
2021/08/02 09:49:31;;;;;;;8.85;4.68;;;36.70;59.00;;;;;;5060081;28;20048;-45
2021/08/02 09:52:08;;;;;;;13.75;3.67;;;36.60;60.30;;;;;;5073327;28;20037;-48
2021/08/02 09:54:36;;;;;;;10.52;3.75;;;36.30;61.50;;;;;;5073688;28;20063;-46
2021/08/02 09:57:07;;;;;;;8.45;3.40;;;36.30;62.40;;;;;;5072296;28;20049;-45
2021/08/02 09:59:43;;;;;;;11.52;4.15;;;36.40;62.60;;;;;;5060076;28;20071;-47
2021/08/02 10:02:12;;;;;;;8.52;4.88;;;36.40;61.40;;;;;;5075607;28;20048;-47
2021/08/02 10:04:42;;;;;;;17.98;5.78;;;36.60;61.50;;;;;;5089699;28;20047;-44
2021/08/02 10:07:13;;;;;;;10.02;3.97;;;36.60;61.00;;;;;;5051566;28;20082;-45
2021/08/02 10:09:41;;;;;;;7.50;3.45;;;36.60;61.00;;;;;;5088930;28;20076;-47
2021/08/02 10:12:09;;;;;;;11.80;4.40;;;36.80;61.20;;;;;;5080842;28;20085;-50
2021/08/02 10:14:37;;;;;;;11.75;3.80;;;36.70;63.10;;;;;;5060456;28;20051;-47
2021/08/02 10:17:10;;;;;;;9.80;3.72;;;36.60;63.70;;;;;;5067570;28;20040;-47
2021/08/02 10:19:47;;;;;;;11.13;4.88;;;36.60;64.20;;;;;;5091323;28;20044;-47
2021/08/02 10:22:15;;;;;;;10.60;3.97;;;36.50;64.60;;;;;;5076658;28;20048;-50
2021/08/02 10:24:50;;;;;;;19.15;4.35;;;36.30;64.30;;;;;;5089297;28;20098;-44
2021/08/02 10:27:28;;;;;;;12.07;3.85;;;36.20;63.10;;;;;;5076309;28;20044;-45
2021/08/02 10:30:02;;;;;;;12.45;4.97;;;36.20;63.20;;;;;;5086062;28;20048;-45
2021/08/02 10:32:30;;;;;;;8.23;4.13;;;36.10;61.70;;;;;;5070244;28;20050;-45
2021/08/02 10:34:59;;;;;;;10.88;4.15;;;36.20;61.70;;;;;;5088000;28;20044;-45
2021/08/02 10:37:29;;;;;;;9.00;3.63;;;36.40;62.20;;;;;;5059581;28;20083;-46
2021/08/02 10:40:07;;;;;;;12.82;5.38;;;36.50;62.10;;;;;;5069494;28;20036;-45
2021/08/02 10:42:52;;;;;;;14.20;5.03;;;36.40;62.90;;;;;;5086560;28;20053;-45
2021/08/02 10:45:39;;;;;;;7.82;3.63;;;36.30;62.10;;;;;;5063345;28;20094;-44
2021/08/02 10:48:08;;;;;;;7.70;4.38;;;36.20;62.50;;;;;;5091393;28;20071;-46
2021/08/02 10:50:41;;;;;;;12.77;4.07;;;36.20;61.40;;;;;;5062509;28;20049;-44
2021/08/02 10:53:14;;;;;;;10.25;4.47;;;36.40;60.80;;;;;;5092185;28;20040;-45
2021/08/02 10:55:49;;;;;;;9.70;4.93;;;36.50;60.50;;;;;;5082479;28;20379;-44
2021/08/02 10:58:30;;;;;;;;;;;36.60;59.80;;;;;;5052137;28;20041;-47
2021/08/02 11:01:02;;;;;;;15.50;4.35;;;36.50;59.90;;;;;;5060285;28;19924;-45
2021/08/02 11:03:32;;;;;;;8.60;3.80;;;36.40;59.80;;;;;;5092154;28;20482;-49
2021/08/02 11:06:13;;;;;;;12.85;3.72;;;36.50;59.70;;;;;;5044680;28;20767;-47
2021/08/02 11:08:49;;;;;;;9.98;4.28;;;36.40;59.40;;;;;;5092629;28;20052;-50
2021/08/02 11:11:30;;;;;;;7.05;3.85;;;36.20;59.50;;;;;;5049663;28;20041;-45
2021/08/02 11:14:07;;;;;;;7.65;3.85;;;36.30;59.40;;;;;;5055306;28;20102;-48
2021/08/02 11:16:50;;;;;;;9.75;3.75;;;36.50;59.80;;;;;;5082841;28;20617;-45
2021/08/02 11:19:28;;;;;;;12.10;3.75;;;36.50;59.80;;;;;;5089983;28;20498;-44
2021/08/02 11:21:55;;;;;;;8.43;3.95;;;36.60;59.90;;;;;;5084222;28;20056;-48
2021/08/02 11:24:28;;;;;;;18.55;4.40;;;36.50;59.90;;;;;;5088757;28;20048;-45
2021/08/02 11:27:01;;;;;;;7.97;3.97;;;36.50;59.80;;;;;;5065884;28;20040;-45
2021/08/02 11:29:31;;;;;;;9.07;3.78;;;36.60;59.90;;;;;;5087300;28;20078;-46
2021/08/02 11:32:05;;;;;;;9.43;3.30;;;36.60;59.90;;;;;;5048720;28;20371;-47
2021/08/02 11:34:34;;;;;;;12.30;4.55;;;36.40;59.90;;;;;;5087799;28;20040;-45
2021/08/02 11:37:11;;;;;;;10.88;4.18;;;36.30;59.90;;;;;;5066166;28;20127;-49
2021/08/02 11:39:47;;;;;;;8.82;4.35;;;36.30;60.00;;;;;;5055112;28;20040;-47
2021/08/02 11:42:17;;;;;;;12.38;4.25;;;36.40;60.10;;;;;;5074867;28;20040;-47
2021/08/02 11:44:54;;;;;;;16.80;4.78;;;36.50;59.50;;;;;;5054436;28;20052;-49
2021/08/02 11:47:27;;;;;;;11.85;4.72;;;36.50;59.30;;;;;;5085076;28;20119;-45
2021/08/02 11:49:56;;;;;;;7.85;3.63;;;36.50;59.30;;;;;;5053783;28;20101;-45
2021/08/02 11:52:26;;;;;;;9.15;3.65;;;36.60;59.00;;;;;;5087161;28;20036;-45
2021/08/02 11:55:04;;;;;;;10.48;3.60;;;36.40;58.00;;;;;;5088991;28;20043;-44
2021/08/02 11:57:33;;;;;;;7.65;3.88;;;36.40;58.00;;;;;;5086879;28;20131;-45
2021/08/02 12:00:04;;;;;;;12.90;4.07;;;36.30;58.30;;;;;;5053283;28;20208;-47
2021/08/02 12:02:40;;;;;;;10.57;3.92;;;36.40;57.90;;;;;;5071377;28;20090;-45
2021/08/02 12:05:21;;;;;;;8.43;4.68;;;36.10;57.50;;;;;;5085123;28;20045;-45
2021/08/02 12:08:14;;;;;;;8.50;3.67;;;36.00;57.90;;;;;;5090315;28;20044;-47
2021/08/02 12:10:53;;;;;;;8.45;3.70;;;35.90;57.60;;;;;;5082603;28;20127;-45
2021/08/02 12:13:21;;;;;;;8.32;3.47;;;35.90;57.20;;;;;;5052113;28;20449;-45
2021/08/02 12:15:52;;;;;;;8.85;3.13;;;35.70;57.50;;;;;;5055219;28;20126;-44
2021/08/02 12:18:28;;;;;;;12.10;3.33;;;35.80;57.60;;;;;;5034791;28;20086;-45
2021/08/02 12:21:24;;;;;;;7.78;4.10;;;35.80;57.70;;;;;;5078012;28;20378;-44
2021/08/02 12:24:07;;;;;;;6.38;3.83;;;35.90;57.70;;;;;;5074470;28;20047;-44
2021/08/02 12:26:37;;;;;;;9.52;3.90;;;35.90;57.70;;;;;;5046279;28;20102;-45
2021/08/02 12:29:05;;;;;;;6.85;3.20;;;35.80;57.60;;;;;;5072507;28;20043;-45
2021/08/02 12:31:38;;;;;;;8.23;3.50;;;35.80;57.60;;;;;;5048558;28;20101;-44
2021/08/02 12:34:06;;;;;;;5.65;2.97;;;35.70;57.70;;;;;;5055527;28;20044;-45
2021/08/02 12:36:34;;;;;;;12.82;4.53;;;35.70;57.60;;;;;;5066127;28;20086;-44
2021/08/02 12:39:02;;;;;;;8.60;3.85;;;35.50;57.50;;;;;;5089579;28;20131;-44
2021/08/02 12:41:37;;;;;;;10.25;3.80;;;35.50;57.80;;;;;;5083532;28;20047;-46
2021/08/02 12:44:15;;;;;;;8.13;3.10;;;35.50;57.60;;;;;;5088999;28;20123;-46
2021/08/02 12:46:43;;;;;;;8.00;3.38;;;35.60;57.80;;;;;;5083167;28;20297;-45
2021/08/02 12:49:11;;;;;;;8.98;3.22;;;35.50;57.60;;;;;;5088977;28;20151;-47
2021/08/02 12:51:39;;;;;;;7.88;3.05;;;35.50;57.50;;;;;;5075841;28;20070;-45
2021/08/02 12:54:07;;;;;;;9.05;3.63;;;35.60;57.40;;;;;;5071536;28;20502;-45
2021/08/02 12:56:35;;;;;;;9.20;4.10;;;35.60;57.40;;;;;;5082428;28;20056;-45
2021/08/02 12:59:03;;;;;;;9.15;3.42;;;35.70;57.30;;;;;;5072640;28;20041;-44
2021/08/02 13:01:31;;;;;;;8.90;3.13;;;35.80;57.00;;;;;;5081779;28;20051;-48